Terminal Aerodrome Forecast
Issued by NWS

Home | Current Version | Previous Version | Text Only | Print | Product List | Glossary On
Versions: 1 2 3 4 5 6 7 8 9 10 11 12 13 14 15 16 17 18 19 20 21 22 23 24
000
FTUS42 KFFC 201100
TAFPDK
TAF
KPDK 201125Z 2012/2112 28003KT 6SM BR FEW010
     FM201500 30006KT P6SM SCT025
     FM201700 28008KT P6SM VCSH SCT045
      TEMPO 2019/2023 VRB15G25KT 5SM -TSRA BKN030CB
     FM210200 28003KT P6SM FEW050=

USA.gov is the U.S. government's official web portal to all federal, state and local government web resources and services.